M I D A S
Marine Information and Data Acquisition System
Tripno 702 of the Zeeleeuw from 2004-01-22 07:48:36 to 2004-01-22 22:54:13
Back to CruiseResearch ActivitiesStationsMapUnderway DataData graphs

EquipmentUnitsComment
TimeDGPSUTC
LatitudeDGPSDM.mWGS84
LongitudeDGPSDM.mWGS84
HeadingGyrodeg 
SOGDGPSknotsSpeed over ground
COGDGPSdegCourse over ground
DepthEcho soundermeters200 kHz
Missing or incorrect values are displayed as -999
Navigation data collected by the RV Zeeleeuw from 2004-01-22 07:48:36 to 2004-01-22 22:54:13
                                                                                    Next 1000 lines
Time Latitude Longitude Heading SOG COG Depth
2004-01-22 07:48:42 51°13.594 2°56.103 118 1.2 299 6.2
2004-01-22 07:48:48 51°13.596 2°56.099 118.2 1.5 301 6.3
2004-01-22 07:48:52 51°13.597 2°56.097 118.2 1.7 299 -999
2004-01-22 07:48:58 51°13.599 2°56.092 117.6 1.9 297 -999
2004-01-22 07:49:04 51°13.6 2°56.087 117.3 2.2 298 -999
2004-01-22 07:49:09 51°13.602 2°56.082 117 2.3 297 -999
2004-01-22 07:49:13 51°13.603 2°56.078 116.7 2.4 297 -999
2004-01-22 07:49:18 51°13.604 2°56.073 116.5 2.6 296 -999
2004-01-22 07:49:24 51°13.606 2°56.067 116.4 2.7 297 -999
2004-01-22 07:49:29 51°13.608 2°56.061 116.3 2.8 295 -999
2004-01-22 07:49:34 51°13.609 2°56.055 116.2 2.9 296 -999
2004-01-22 07:49:38 51°13.61 2°56.051 116.1 3 294 -999
2004-01-22 07:49:44 51°13.613 2°56.043 115.9 3.1 294 -999
2004-01-22 07:49:49 51°13.614 2°56.037 115.9 3.2 294 -999
2004-01-22 07:49:53 51°13.616 2°56.031 115.9 3.3 294 -999
2004-01-22 07:49:58 51°13.617 2°56.025 116 3.3 294 -999
2004-01-22 07:50:04 51°13.619 2°56.016 115.9 3.4 292 -999
2004-01-22 07:50:09 51°13.621 2°56.009 115.8 3.4 292 -999
2004-01-22 07:50:14 51°13.623 2°56.002 116.1 3.4 292 -999
2004-01-22 07:50:18 51°13.624 2°55.997 116.6 3.5 293 -999
2004-01-22 07:50:24 51°13.627 2°55.988 117.2 3.6 294 -999
2004-01-22 07:50:29 51°13.629 2°55.981 117.5 3.6 295 -999
2004-01-22 07:50:33 51°13.631 2°55.975 118 3.7 295 -999
2004-01-22 07:50:38 51°13.633 2°55.967 118.1 3.8 296 -999
2004-01-22 07:50:44 51°13.636 2°55.958 118.2 3.9 295 -999
2004-01-22 07:50:49 51°13.638 2°55.95 118.3 4 296 -999
2004-01-22 07:50:53 51°13.64 2°55.943 118.3 4 295 -999
2004-01-22 07:50:58 51°13.643 2°55.935 118.3 4.2 296 -999
2004-01-22 07:51:04 51°13.646 2°55.925 118.2 4.3 296 -999
2004-01-22 07:51:09 51°13.649 2°55.916 118 4.3 296 -999
2004-01-22 07:51:14 51°13.651 2°55.907 117.8 4.4 296 -999
2004-01-22 07:51:18 51°13.653 2°55.901 117.5 4.4 296 -999
2004-01-22 07:51:24 51°13.656 2°55.89 116.8 4.5 294 -999
2004-01-22 07:51:29 51°13.659 2°55.881 116 4.5 295 -999
2004-01-22 07:51:33 51°13.661 2°55.874 114.5 4.4 294 -999
2004-01-22 07:51:38 51°13.663 2°55.865 113.2 4.5 293 -999
2004-01-22 07:51:44 51°13.666 2°55.854 112.1 4.4 292 -999
2004-01-22 07:51:48 51°13.668 2°55.846 110.5 4.4 291 -999
2004-01-22 07:51:53 51°13.67 2°55.838 109.1 4.3 289 -999
2004-01-22 07:51:58 51°13.671 2°55.829 107.6 4.2 288 8.4
2004-01-22 07:52:02 51°13.673 2°55.822 106.2 4.2 287 8.6
2004-01-22 07:52:08 51°13.675 2°55.811 104.8 4.1 286 8.8
2004-01-22 07:52:13 51°13.676 2°55.803 103.4 4 285 9.4
2004-01-22 07:52:18 51°13.677 2°55.795 101.8 3.9 284 9.7
2004-01-22 07:52:23 51°13.679 2°55.787 100.1 3.7 284 10
2004-01-22 07:52:28 51°13.679 2°55.78 98.4 3.1 282 10.6
2004-01-22 07:52:32 51°13.68 2°55.776 96.5 2.5 281 11.2
2004-01-22 07:52:38 51°13.681 2°55.77 93.6 2.2 281 11.4
2004-01-22 07:52:42 51°13.681 2°55.767 90.5 1.8 283 11.3
2004-01-22 07:52:48 51°13.682 2°55.764 87.6 1.3 285 11.1
2004-01-22 07:52:52 51°13.682 2°55.762 84.1 1 289 11.6
2004-01-22 07:52:58 51°13.683 2°55.761 80.6 0.7 309 11.8
2004-01-22 07:53:04 51°13.684 2°55.761 77 0.5 335 12
2004-01-22 07:53:08 51°13.685 2°55.761 72.5 0.7 19 12.4
2004-01-22 07:53:12 51°13.686 2°55.762 67.2 1 27 12.5
2004-01-22 07:53:18 51°13.688 2°55.764 60 1.2 26 12.7
2004-01-22 07:53:22 51°13.689 2°55.765 55 1.4 27 12.6
2004-01-22 07:53:28 51°13.692 2°55.767 48.1 1.9 20 12.7
2004-01-22 07:53:32 51°13.695 2°55.768 41.1 2.1 16 12.9
2004-01-22 07:53:38 51°13.698 2°55.769 33.6 2.3 10 13.9
2004-01-22 07:53:42 51°13.701 2°55.769 26.3 2.5 6 12.3
2004-01-22 07:53:48 51°13.706 2°55.769 19.1 2.8 358 12.3
2004-01-22 07:53:52 51°13.709 2°55.768 12.1 3.1 353 12.6
2004-01-22 07:53:58 51°13.715 2°55.766 4.9 3.6 346 11.9
2004-01-22 07:54:02 51°13.72 2°55.764 356.8 3.9 340 10.7
2004-01-22 07:54:08 51°13.726 2°55.758 347.6 4 331 9.6
2004-01-22 07:54:12 51°13.73 2°55.753 338.3 4.6 326 8.8
2004-01-22 07:54:18 51°13.737 2°55.746 329.9 4.6 322 8.6
2004-01-22 07:54:22 51°13.741 2°55.741 326.8 4.6 322 8.4
2004-01-22 07:54:28 51°13.747 2°55.732 324.4 5.1 319 8.7
2004-01-22 07:54:32 51°13.752 2°55.726 323.4 5.3 318 8.7
2004-01-22 07:54:38 51°13.759 2°55.716 323.3 5.4 319 8.6
2004-01-22 07:54:42 51°13.763 2°55.71 323.1 5.6 319 8.7
2004-01-22 07:54:48 51°13.771 2°55.699 323 6 318 8.5
2004-01-22 07:54:52 51°13.776 2°55.692 323.1 6.2 318 8.7
2004-01-22 07:54:58 51°13.784 2°55.681 323.7 6.3 319 8.8
2004-01-22 07:55:03 51°13.791 2°55.672 324.8 6.5 321 8.9
2004-01-22 07:55:08 51°13.799 2°55.663 326.1 6.8 324 9.1
2004-01-22 07:55:13 51°13.807 2°55.654 327.7 6.9 325 9.6
2004-01-22 07:55:18 51°13.815 2°55.646 329.5 7 327 9.4
2004-01-22 07:55:23 51°13.824 2°55.637 331.3 7.1 328 9.5
2004-01-22 07:55:28 51°13.833 2°55.63 333.7 7.3 331 9.3
2004-01-22 07:55:33 51°13.842 2°55.622 335.3 7.4 332 9.1
2004-01-22 07:55:38 51°13.851 2°55.615 337.2 7.5 333 8.9
2004-01-22 07:55:43 51°13.861 2°55.608 338.8 7.6 335 9.3
2004-01-22 07:55:48 51°13.87 2°55.601 339.2 7.6 335 8.8
2004-01-22 07:55:52 51°13.878 2°55.595 339.5 7.7 335 8.7
2004-01-22 07:55:58 51°13.89 2°55.586 339.6 7.8 335 8.8
2004-01-22 07:56:02 51°13.897 2°55.58 340.1 7.8 336 8.9
2004-01-22 07:56:08 51°13.909 2°55.572 340.5 7.9 336 8.7
2004-01-22 07:56:12 51°13.917 2°55.566 340.8 7.9 335 9.1
2004-01-22 07:56:18 51°13.929 2°55.557 340.7 8 335 8.9
2004-01-22 07:56:23 51°13.939 2°55.549 340.5 8 336 8.8
2004-01-22 07:56:28 51°13.949 2°55.542 340.7 8.1 336 8.9
2004-01-22 07:56:32 51°13.957 2°55.537 341.3 8 337 8.8
2004-01-22 07:56:38 51°13.97 2°55.528 341.5 8 337 8.7
2004-01-22 07:56:42 51°13.978 2°55.523 341.5 8 337 9.2
2004-01-22 07:56:48 51°13.99 2°55.514 341.7 8.1 337 8.6
2004-01-22 07:56:52 51°13.999 2°55.509 341.8 8.1 337 8.5
2004-01-22 07:56:58 51°14.011 2°55.5 341.5 8.1 337 8.4
2004-01-22 07:57:02 51°14.02 2°55.495 341.4 8.1 337 8.3
2004-01-22 07:57:08 51°14.032 2°55.486 341.4 8.1 337 8.3
2004-01-22 07:57:12 51°14.04 2°55.48 341.1 8.1 336 8.2
2004-01-22 07:57:18 51°14.053 2°55.471 340.4 8.1 335 8.1
2004-01-22 07:57:23 51°14.063 2°55.463 340.1 8.2 335 8.1
2004-01-22 07:57:28 51°14.074 2°55.455 340 8.5 335 8
2004-01-22 07:57:32 51°14.083 2°55.449 340 8.6 335 8
2004-01-22 07:57:38 51°14.096 2°55.439 340.2 8.8 335 8
2004-01-22 07:57:43 51°14.108 2°55.431 340.5 8.9 336 8
2004-01-22 07:57:48 51°14.119 2°55.423 340.8 9.2 336 8
2004-01-22 07:57:52 51°14.129 2°55.416 340.7 9.4 336 8.1
2004-01-22 07:57:58 51°14.144 2°55.405 340.2 9.7 335 8.9
2004-01-22 07:58:02 51°14.154 2°55.397 339.7 9.9 334 8.5
2004-01-22 07:58:08 51°14.169 2°55.385 339.2 10.2 332 9.5
2004-01-22 07:58:12 51°14.179 2°55.376 337.5 10.3 330 9.3
2004-01-22 07:58:18 51°14.193 2°55.361 334.7 10.4 329 9.6
2004-01-22 07:58:22 51°14.203 2°55.351 333.2 10.5 327 8.8
2004-01-22 07:58:28 51°14.218 2°55.336 332.1 10.5 326 8.8
2004-01-22 07:58:32 51°14.227 2°55.325 330.9 10.6 324 8.9
2004-01-22 07:58:38 51°14.241 2°55.307 329.6 10.7 323 8.8
2004-01-22 07:58:43 51°14.252 2°55.291 327 10.7 320 8.8
2004-01-22 07:58:48 51°14.263 2°55.274 323.1 10.8 314 8.9
2004-01-22 07:58:52 51°14.271 2°55.26 319.2 10.8 312 8.9
2004-01-22 07:58:58 51°14.282 2°55.238 316.8 10.8 311 9.3
2004-01-22 07:59:02 51°14.29 2°55.223 315.1 10.9 309 9
2004-01-22 07:59:08 51°14.301 2°55.199 313.3 11.1 307 8.9
2004-01-22 07:59:12 51°14.309 2°55.183 311.9 11.2 307 9
2004-01-22 07:59:18 51°14.32 2°55.159 311.5 11.3 307 9
2004-01-22 07:59:23 51°14.329 2°55.139 311.7 11.4 307 9
2004-01-22 07:59:28 51°14.339 2°55.119 312.5 11.5 308 9.1
2004-01-22 07:59:32 51°14.347 2°55.103 313.3 11.6 309 9.2
2004-01-22 07:59:38 51°14.36 2°55.079 313.8 11.7 309 9
2004-01-22 07:59:42 51°14.368 2°55.063 314.1 11.8 309 9.1
2004-01-22 07:59:48 51°14.381 2°55.04 315.2 12 311 9.4
2004-01-22 07:59:52 51°14.391 2°55.024 316.8 12.1 312 9.6
2004-01-22 07:59:58 51°14.405 2°55 318.6 12.2 313 9.4
2004-01-22 08:00:02 51°14.415 2°54.985 320.4 12.4 315 9.2
2004-01-22 08:00:08 51°14.43 2°54.962 322.4 12.6 317 9.3
2004-01-22 08:00:13 51°14.443 2°54.943 323.8 12.6 317 9.5
2004-01-22 08:00:18 51°14.456 2°54.925 324.9 12.7 318 9.1
2004-01-22 08:00:23 51°14.47 2°54.906 325.7 12.7 319 9
2004-01-22 08:00:28 51°14.484 2°54.888 326.6 12.8 321 8.8
2004-01-22 08:00:33 51°14.498 2°54.872 328.8 12.8 324 8.8
2004-01-22 08:00:38 51°14.512 2°54.855 330.9 12.9 324 8.6
2004-01-22 08:00:43 51°14.527 2°54.839 332.3 12.9 326 8.5
2004-01-22 08:00:48 51°14.542 2°54.823 333.5 13 327 8.6
2004-01-22 08:00:52 51°14.554 2°54.81 334 13 327 8.7
2004-01-22 08:00:58 51°14.572 2°54.791 333.1 13.1 325 8.6
2004-01-22 08:01:02 51°14.585 2°54.777 332.9 13.2 325 8.5
2004-01-22 08:01:08 51°14.603 2°54.757 333.2 13.2 325 8.4
2004-01-22 08:01:13 51°14.618 2°54.74 333.1 13.3 324 8.4
2004-01-22 08:01:18 51°14.632 2°54.722 332 13.3 322 8.4
2004-01-22 08:01:23 51°14.647 2°54.704 330.5 13.3 321 8.4
2004-01-22 08:01:28 51°14.661 2°54.684 329.5 13.3 320 8.3
2004-01-22 08:01:33 51°14.675 2°54.666 328.7 13.3 320 8.2
2004-01-22 08:01:38 51°14.689 2°54.647 328.4 13.4 320 8.3
2004-01-22 08:01:42 51°14.701 2°54.631 328.2 13.4 320 8.4
2004-01-22 08:01:48 51°14.718 2°54.609 328.3 13.5 321 8.3
2004-01-22 08:01:52 51°14.73 2°54.594 328.7 13.5 321 8.4
2004-01-22 08:01:58 51°14.748 2°54.572 329.5 13.5 322 8.3
2004-01-22 08:02:02 51°14.76 2°54.557 330.1 13.5 323 8.4
2004-01-22 08:02:08 51°14.778 2°54.536 331 13.5 324 8.2
2004-01-22 08:02:13 51°14.793 2°54.519 331.6 13.5 324 8.4
2004-01-22 08:02:18 51°14.808 2°54.501 332.3 13.5 324 8.3
2004-01-22 08:02:22 51°14.82 2°54.487 332.2 13.5 324 8.3
2004-01-22 08:02:28 51°14.838 2°54.465 331.6 13.5 323 8.2
2004-01-22 08:02:32 51°14.85 2°54.451 331 13.5 322 8.2
2004-01-22 08:02:38 51°14.867 2°54.428 330.2 13.5 321 8.1
2004-01-22 08:02:42 51°14.879 2°54.413 329.4 13.5 321 8.1
2004-01-22 08:02:48 51°14.896 2°54.391 328.8 13.4 320 7.9
2004-01-22 08:02:52 51°14.907 2°54.375 328 13.3 319 7.8
2004-01-22 08:02:58 51°14.924 2°54.353 327.4 13.3 319 7.7
2004-01-22 08:03:02 51°14.935 2°54.337 327 13.3 318 7.5
2004-01-22 08:03:08 51°14.95 2°54.313 326.6 13.1 318 5.6
2004-01-22 08:03:13 51°14.963 2°54.293 326.1 13 317 7.4
2004-01-22 08:03:18 51°14.976 2°54.274 325.6 12.9 317 7.3
2004-01-22 08:03:22 51°14.987 2°54.258 325.2 12.9 317 7.3
2004-01-22 08:03:28 51°15.002 2°54.235 324.7 12.9 316 7.3
2004-01-22 08:03:33 51°15.015 2°54.215 324.8 12.9 317 5.5
2004-01-22 08:03:38 51°15.029 2°54.196 325.2 12.9 317 7.3
2004-01-22 08:03:42 51°15.04 2°54.182 325.8 12.8 319 7.2
2004-01-22 08:03:48 51°15.058 2°54.162 328.7 12.9 326 7.4
2004-01-22 08:03:52 51°15.07 2°54.151 332.4 12.9 329 7.5
2004-01-22 08:03:57 51°15.086 2°54.138 337.8 12.9 333 5.6
2004-01-22 08:04:04 51°15.109 2°54.123 341.6 12.9 337 7.7
2004-01-22 08:04:08 51°15.123 2°54.116 346 12.8 340 7.8
2004-01-22 08:04:12 51°15.136 2°54.109 347.9 12.7 341 7.9
2004-01-22 08:04:18 51°15.157 2°54.098 349.8 12.8 342 7.9
2004-01-22 08:04:22 51°15.17 2°54.091 350.5 12.8 342 8
2004-01-22 08:04:28 51°15.191 2°54.08 350.5 12.9 341 8
2004-01-22 08:04:32 51°15.204 2°54.072 350 13 339 8
2004-01-22 08:04:38 51°15.224 2°54.058 348 13.1 336 8
2004-01-22 08:04:43 51°15.24 2°54.044 345.3 13.1 333 8.1
2004-01-22 08:04:48 51°15.256 2°54.03 342.5 13.2 331 8.1
2004-01-22 08:04:52 51°15.269 2°54.018 340.4 13.2 330 8.1
2004-01-22 08:04:58 51°15.287 2°54 338.6 13.2 328 8.2
2004-01-22 08:05:03 51°15.303 2°53.984 337.6 13.2 328 8.4
2004-01-22 08:05:08 51°15.319 2°53.969 337.1 13.2 328 8.4
2004-01-22 08:05:13 51°15.335 2°53.954 337.1 13.3 329 8.4
2004-01-22 08:05:18 51°15.351 2°53.939 338 13.3 330 8.4
2004-01-22 08:05:22 51°15.364 2°53.928 339.4 13.3 331 8.7
2004-01-22 08:05:28 51°15.384 2°53.913 341.1 13.4 334 8.5
2004-01-22 08:05:32 51°15.398 2°53.903 343.2 13.5 335 9
2004-01-22 08:05:38 51°15.419 2°53.889 344.8 13.4 337 8.8
2004-01-22 08:05:43 51°15.436 2°53.877 345.9 13.4 337 8.8
2004-01-22 08:05:48 51°15.453 2°53.865 346.2 13.4 337 8.8
2004-01-22 08:05:52 51°15.466 2°53.856 346.4 13.5 336 8.9
2004-01-22 08:05:58 51°15.487 2°53.841 345.7 13.5 335 9
2004-01-22 08:06:02 51°15.5 2°53.83 344.2 13.6 334 9.1
2004-01-22 08:06:08 51°15.52 2°53.813 342.8 13.6 332 9.1
2004-01-22 08:06:13 51°15.537 2°53.799 341.8 13.7 332 9.2
2004-01-22 08:06:18 51°15.554 2°53.784 340.5 13.7 331 9.3
2004-01-22 08:06:22 51°15.567 2°53.772 340.2 13.7 332 9.4
2004-01-22 08:06:27 51°15.584 2°53.757 340.3 13.7 331 9.5
2004-01-22 08:06:32 51°15.601 2°53.743 340.5 13.8 331 9.5
2004-01-22 08:06:38 51°15.621 2°53.726 340.9 13.8 333 9.7
2004-01-22 08:06:43 51°15.638 2°53.713 341.7 13.8 333 9.6
2004-01-22 08:06:48 51°15.655 2°53.699 342.5 13.8 333 9.7
2004-01-22 08:06:52 51°15.669 2°53.689 342.6 13.8 335 9.8
2004-01-22 08:06:58 51°15.689 2°53.673 343.4 13.8 334 9.9
2004-01-22 08:07:02 51°15.703 2°53.662 343.6 13.8 334 9.9
2004-01-22 08:07:08 51°15.724 2°53.646 343.4 13.8 334 10
2004-01-22 08:07:12 51°15.738 2°53.635 343.3 13.9 333 10.1
2004-01-22 08:07:18 51°15.759 2°53.618 342.9 13.9 333 10.1
2004-01-22 08:07:22 51°15.773 2°53.607 342.3 13.9 333 10.2
2004-01-22 08:07:28 51°15.793 2°53.59 342.3 13.9 333 10.2
2004-01-22 08:07:32 51°15.807 2°53.579 342.4 13.8 333 10.3
2004-01-22 08:07:38 51°15.827 2°53.563 342.5 13.8 333 10.3
2004-01-22 08:07:42 51°15.841 2°53.552 342.6 13.8 333 10.3
2004-01-22 08:07:48 51°15.862 2°53.535 342.5 13.8 332 10.4
2004-01-22 08:07:52 51°15.875 2°53.524 342.5 13.8 332 10.5
2004-01-22 08:07:58 51°15.895 2°53.506 342 13.8 331 10.5
2004-01-22 08:08:00 51°15.902 2°53.501 341.5 13.8 332 10.5
2004-01-22 08:08:08 51°15.929 2°53.477 341.5 13.9 331 10.6
2004-01-22 08:08:12 51°15.942 2°53.465 341.4 13.9 332 10.6
2004-01-22 08:08:18 51°15.963 2°53.448 341.7 13.8 332 10.6
2004-01-22 08:08:22 51°15.977 2°53.437 341.9 13.8 332 10.6
2004-01-22 08:08:28 51°15.997 2°53.419 342.2 13.8 332 10.8
2004-01-22 08:08:32 51°16.01 2°53.408 342 13.8 331 10.8
2004-01-22 08:08:38 51°16.031 2°53.391 341.8 13.8 332 10.9
2004-01-22 08:08:42 51°16.044 2°53.379 342.2 13.8 332 10.9
2004-01-22 08:08:48 51°16.065 2°53.363 342.3 13.8 333 10.9
2004-01-22 08:08:52 51°16.078 2°53.351 342.5 13.8 331 11
2004-01-22 08:08:58 51°16.098 2°53.334 342.2 13.8 332 11
2004-01-22 08:09:02 51°16.112 2°53.322 341.8 13.8 332 11
2004-01-22 08:09:08 51°16.132 2°53.305 341.8 13.7 333 11
2004-01-22 08:09:12 51°16.146 2°53.293 342.3 13.8 331 11.1
2004-01-22 08:09:17 51°16.162 2°53.279 342.1 13.8 332 11.1
2004-01-22 08:09:23 51°16.183 2°53.262 341.9 13.8 332 11.1
2004-01-22 08:09:28 51°16.2 2°53.248 342.1 13.8 332 11.2
2004-01-22 08:09:32 51°16.213 2°53.236 342.2 13.8 332 11.3
2004-01-22 08:09:38 51°16.234 2°53.22 341.9 13.8 333 11.3
2004-01-22 08:09:42 51°16.248 2°53.209 342.1 13.8 333 11.3
2004-01-22 08:09:48 51°16.268 2°53.193 342.2 13.7 333 11.3
2004-01-22 08:09:52 51°16.281 2°53.182 342.2 13.7 333 11.3
2004-01-22 08:09:58 51°16.302 2°53.165 341.8 13.7 333 11.3
2004-01-22 08:10:02 51°16.316 2°53.154 341.8 13.7 333 11.4
2004-01-22 08:10:08 51°16.336 2°53.138 341.8 13.7 333 11.3
2004-01-22 08:10:12 51°16.35 2°53.127 341.8 13.7 333 11.3
2004-01-22 08:10:18 51°16.37 2°53.111 341.9 13.7 333 11.3
2004-01-22 08:10:22 51°16.383 2°53.1 341.8 13.7 333 11.3
2004-01-22 08:10:28 51°16.404 2°53.083 341.4 13.7 333 11.3
2004-01-22 08:10:32 51°16.417 2°53.072 341.5 13.7 333 11.3
2004-01-22 08:10:38 51°16.437 2°53.056 341.6 13.7 334 11.1
2004-01-22 08:10:42 51°16.451 2°53.045 341.8 13.7 334 11.2
2004-01-22 08:10:48 51°16.471 2°53.029 341.8 13.7 333 11.1
2004-01-22 08:10:52 51°16.485 2°53.018 341.4 13.7 333 11.1
2004-01-22 08:10:58 51°16.506 2°53.002 341.4 13.7 333 11
2004-01-22 08:11:03 51°16.523 2°52.989 341.2 13.7 333 10.9
2004-01-22 08:11:08 51°16.54 2°52.975 341.5 13.7 333 10.8
2004-01-22 08:11:12 51°16.553 2°52.964 341.4 13.6 333 10.8
2004-01-22 08:11:18 51°16.573 2°52.948 341.2 13.6 333 10.7
2004-01-22 08:11:22 51°16.587 2°52.937 341 13.6 333 10.7
2004-01-22 08:11:28 51°16.607 2°52.92 341 13.6 333 10.6
2004-01-22 08:11:32 51°16.62 2°52.909 340.9 13.6 333 10.5
2004-01-22 08:11:38 51°16.64 2°52.893 340.9 13.6 332 10.4
2004-01-22 08:11:42 51°16.654 2°52.881 340.7 13.5 333 10.3
2004-01-22 08:11:48 51°16.674 2°52.865 340.5 13.5 332 10.2
2004-01-22 08:11:52 51°16.687 2°52.854 340.5 13.5 333 10.1
2004-01-22 08:11:56 51°16.7 2°52.843 340.6 13.5 333 9.9
2004-01-22 08:12:02 51°16.72 2°52.826 341 13.5 333 9.7
2004-01-22 08:12:08 51°16.74 2°52.811 341.2 13.4 333 9.5
2004-01-22 08:12:12 51°16.753 2°52.8 341.5 13.3 334 9.1
2004-01-22 08:12:18 51°16.773 2°52.784 341.9 13.2 334 8.7
2004-01-22 08:12:22 51°16.786 2°52.774 341.8 13.1 333 8.6
2004-01-22 08:12:28 51°16.805 2°52.758 341.4 13 333 8.6
2004-01-22 08:12:32 51°16.818 2°52.748 340.8 12.8 332 8.5
2004-01-22 08:12:38 51°16.836 2°52.731 340.6 12.9 331 8.5
2004-01-22 08:12:42 51°16.849 2°52.72 339.6 12.9 331 8.3
2004-01-22 08:12:48 51°16.868 2°52.703 339.1 12.9 330 8.3
2004-01-22 08:12:52 51°16.88 2°52.692 339 12.9 330 8.2
2004-01-22 08:12:58 51°16.899 2°52.674 338.7 12.8 330 8.4
2004-01-22 08:13:02 51°16.911 2°52.664 339 12.8 330 8.4
2004-01-22 08:13:08 51°16.93 2°52.647 339.4 13 331 8.6
2004-01-22 08:13:12 51°16.943 2°52.636 339.5 13.1 331 8.8
2004-01-22 08:13:16 51°16.956 2°52.624 340 13.2 332 8.9
2004-01-22 08:13:23 51°16.978 2°52.606 340.6 13.2 333 9
2004-01-22 08:13:28 51°16.995 2°52.593 341.8 13.3 334 8.9
2004-01-22 08:13:32 51°17.008 2°52.583 342.5 13.3 334 8.8
2004-01-22 08:13:38 51°17.028 2°52.569 344.3 13.1 336 8.7
2004-01-22 08:13:43 51°17.045 2°52.559 345.6 13.1 338 8.6
2004-01-22 08:13:48 51°17.062 2°52.548 346.1 13 338 8.5
2004-01-22 08:13:52 51°17.075 2°52.54 346.8 12.8 338 8.6
2004-01-22 08:13:58 51°17.095 2°52.527 347.2 12.8 338 8.6
2004-01-22 08:14:02 51°17.109 2°52.518 346.8 12.9 337 8.6
2004-01-22 08:14:08 51°17.129 2°52.505 346.5 13.1 337 8.6
2004-01-22 08:14:12 51°17.142 2°52.496 346 13 336 8.8
2004-01-22 08:14:18 51°17.162 2°52.482 345.5 13.1 336 8.8
2004-01-22 08:14:22 51°17.175 2°52.471 345 13 335 8.7
2004-01-22 08:14:28 51°17.194 2°52.457 344.3 13.1 335 8.8
2004-01-22 08:14:32 51°17.208 2°52.447 343.8 13.2 336 8.9
2004-01-22 08:14:36 51°17.221 2°52.438 344.7 13.2 337 8.9
2004-01-22 08:14:42 51°17.241 2°52.425 345.9 13.1 340 9
2004-01-22 08:14:48 51°17.262 2°52.414 348.1 13.1 342 9.1
2004-01-22 08:14:52 51°17.276 2°52.408 349.9 13.2 345 9.1
2004-01-22 08:14:58 51°17.297 2°52.398 352.2 13.2 345 9.3
2004-01-22 08:15:02 51°17.312 2°52.393 353 13.1 346 9.2
2004-01-22 08:15:08 51°17.333 2°52.383 353.7 13.1 345 9.3
2004-01-22 08:15:12 51°17.347 2°52.377 353.4 13.1 345 9.3
2004-01-22 08:15:18 51°17.368 2°52.367 353 13.1 343 9.3
2004-01-22 08:15:21 51°17.378 2°52.362 352.1 13.2 343 9.4
2004-01-22 08:15:28 51°17.402 2°52.349 351 13.2 341 9.3
2004-01-22 08:15:32 51°17.416 2°52.341 350 13.2 341 9.3
2004-01-22 08:15:38 51°17.437 2°52.329 349.9 13.2 341 9.4
2004-01-22 08:15:42 51°17.451 2°52.322 349.7 13.2 340 9.4
2004-01-22 08:15:48 51°17.471 2°52.31 349.8 13.1 341 9.4
2004-01-22 08:15:52 51°17.485 2°52.303 350.1 13.2 342 9.4
2004-01-22 08:15:58 51°17.506 2°52.292 350.7 13.2 342 9.4
2004-01-22 08:16:02 51°17.52 2°52.286 351.2 13.1 343 9.4
2004-01-22 08:16:08 51°17.541 2°52.275 351.8 13.2 342 9.5
2004-01-22 08:16:12 51°17.555 2°52.268 351.5 13.1 343 9.4
2004-01-22 08:16:18 51°17.575 2°52.257 351.4 13.1 342 9.5
2004-01-22 08:16:22 51°17.589 2°52.251 351.2 13.1 343 9.4
2004-01-22 08:16:28 51°17.61 2°52.239 351.1 13.2 342 9.3
2004-01-22 08:16:32 51°17.624 2°52.233 351 13.2 342 9.3
2004-01-22 08:16:38 51°17.645 2°52.221 350.9 13.2 341 9.3
2004-01-22 08:16:42 51°17.659 2°52.214 350.7 13.1 341 9.3
2004-01-22 08:16:48 51°17.679 2°52.203 350.5 13.1 341 9.3
2004-01-22 08:16:52 51°17.693 2°52.195 350.6 13.1 342 9.4
2004-01-22 08:16:58 51°17.714 2°52.185 350.5 13.1 342 9.4
2004-01-22 08:17:01 51°17.724 2°52.179 350.5 13.2 342 9.4
2004-01-22 08:17:08 51°17.748 2°52.166 350.8 13.1 342 9.4
2004-01-22 08:17:12 51°17.762 2°52.159 350.8 13.1 342 9.3
2004-01-22 08:17:18 51°17.783 2°52.148 351 13.1 342 9.4
2004-01-22 08:17:22 51°17.797 2°52.141 350.7 13.1 342 9.4
2004-01-22 08:17:28 51°17.818 2°52.13 350.9 13.2 341 9.4
2004-01-22 08:17:32 51°17.832 2°52.123 351.2 13.1 342 9.4
2004-01-22 08:17:38 51°17.852 2°52.112 351.2 13.1 341 9.4
2004-01-22 08:17:42 51°17.866 2°52.104 350.5 13.1 341 9.5
2004-01-22 08:17:48 51°17.887 2°52.093 350.5 13.1 341 9.4
2004-01-22 08:17:52 51°17.901 2°52.086 350.4 13.2 341 9.4
2004-01-22 08:17:58 51°17.921 2°52.075 350.5 13.1 341 9.4
2004-01-22 08:18:02 51°17.935 2°52.067 350.5 13.2 342 9.5
2004-01-22 08:18:08 51°17.956 2°52.056 350.5 13.2 342 9.5
2004-01-22 08:18:12 51°17.97 2°52.048 350.5 13.2 340 9.6
2004-01-22 08:18:18 51°17.991 2°52.036 350.5 13.2 341 9.5
2004-01-22 08:18:22 51°18.004 2°52.028 350.4 13.2 340 9.5
2004-01-22 08:18:28 51°18.025 2°52.017 350.5 13.2 342 9.5
2004-01-22 08:18:32 51°18.039 2°52.01 351 13.2 341 9.6
2004-01-22 08:18:38 51°18.06 2°51.999 351.1 13.2 342 9.7
2004-01-22 08:18:42 51°18.074 2°51.992 351.4 13.2 342 9.8
2004-01-22 08:18:47 51°18.091 2°51.982 351.4 13.2 342 9.8
2004-01-22 08:18:52 51°18.108 2°51.972 351.1 13.3 341 9.8
2004-01-22 08:18:58 51°18.129 2°51.961 350.6 13.2 341 9.9
2004-01-22 08:19:01 51°18.14 2°51.955 350.7 13.3 341 9.9
2004-01-22 08:19:08 51°18.164 2°51.941 350.1 13.3 339 10
2004-01-22 08:19:12 51°18.178 2°51.933 350.5 13.3 339 10
2004-01-22 08:19:16 51°18.192 2°51.925 350.1 13.3 341 10.1
2004-01-22 08:19:22 51°18.213 2°51.914 351 13.3 340 10.2
2004-01-22 08:19:28 51°18.234 2°51.902 351 13.3 340 10.2
2004-01-22 08:19:32 51°18.248 2°51.894 350.9 13.4 340 10.3
2004-01-22 08:19:38 51°18.269 2°51.882 350.6 13.4 341 10.4
2004-01-22 08:19:42 51°18.283 2°51.874 350.5 13.2 340 10.4
2004-01-22 08:19:48 51°18.304 2°51.863 350.5 13.3 341 10.5
2004-01-22 08:19:52 51°18.318 2°51.855 350.7 13.4 341 10.5
2004-01-22 08:19:56 51°18.332 2°51.847 351.3 13.4 340 10.7
2004-01-22 08:20:02 51°18.353 2°51.835 351 13.5 340 10.8
2004-01-22 08:20:08 51°18.374 2°51.822 350.4 13.5 339 10.9
2004-01-22 08:20:12 51°18.388 2°51.814 350.5 13.4 340 10.2
2004-01-22 08:20:18 51°18.409 2°51.802 350.1 13.4 340 11.1
2004-01-22 08:20:22 51°18.423 2°51.794 350.5 13.5 340 10.3
2004-01-22 08:20:28 51°18.444 2°51.782 351 13.5 341 9.8
2004-01-22 08:20:32 51°18.458 2°51.773 351.2 13.5 340 11.3
2004-01-22 08:20:38 51°18.479 2°51.761 350.4 13.5 339 11.1
2004-01-22 08:20:42 51°18.493 2°51.752 350.4 13.5 339 11.4
2004-01-22 08:20:48 51°18.514 2°51.74 350.5 13.5 339 11.7
2004-01-22 08:20:52 51°18.528 2°51.731 350.1 13.5 339 11.7
2004-01-22 08:20:58 51°18.549 2°51.719 350.2 13.5 340 11.9
2004-01-22 08:21:02 51°18.563 2°51.71 350.3 13.5 339 12
2004-01-22 08:21:07 51°18.58 2°51.699 350.1 13.5 339 12.1
2004-01-22 08:21:12 51°18.598 2°51.689 350.5 13.5 340 12.2
2004-01-22 08:21:18 51°18.619 2°51.677 350.6 13.4 340 12.3
2004-01-22 08:21:22 51°18.633 2°51.668 351 13.5 340 12.4
2004-01-22 08:21:28 51°18.654 2°51.656 350.5 13.5 339 12.5
2004-01-22 08:21:32 51°18.667 2°51.647 350.5 13.5 339 12.6
2004-01-22 08:21:37 51°18.685 2°51.636 349.8 13.4 338 12.6
2004-01-22 08:21:42 51°18.702 2°51.626 350.5 13.4 340 12.8
2004-01-22 08:21:48 51°18.723 2°51.613 350.2 13.6 339 12.9
2004-01-22 08:21:52 51°18.737 2°51.604 350.3 13.6 338 13
2004-01-22 08:21:58 51°18.758 2°51.591 350.1 13.5 339 13.1
2004-01-22 08:22:02 51°18.772 2°51.582 350.4 13.5 338 13.2
2004-01-22 08:22:08 51°18.793 2°51.569 349.7 13.6 339 13.3
2004-01-22 08:22:12 51°18.807 2°51.559 349.9 13.5 338 13.3
2004-01-22 08:22:18 51°18.828 2°51.547 349.9 13.5 339 13.4
2004-01-22 08:22:22 51°18.842 2°51.538 350.4 13.5 339 13.5
2004-01-22 08:22:28 51°18.862 2°51.525 350.5 13.4 339 13.6
2004-01-22 08:22:32 51°18.876 2°51.517 350.9 13.4 339 13.6
2004-01-22 08:22:38 51°18.897 2°51.505 350.8 13.3 340 13.7
2004-01-22 08:22:42 51°18.911 2°51.496 351 13.4 340 13.8
2004-01-22 08:22:48 51°18.932 2°51.484 350.7 13.4 339 13.9
2004-01-22 08:22:52 51°18.946 2°51.474 350.7 13.4 337 14
2004-01-22 08:22:58 51°18.967 2°51.461 350.2 13.4 338 14
2004-01-22 08:23:02 51°18.98 2°51.452 349.5 13.5 338 13.8
2004-01-22 08:23:08 51°19.001 2°51.439 349.8 13.4 339 13.7
2004-01-22 08:23:12 51°19.015 2°51.431 350.5 13.3 339 13.8
2004-01-22 08:23:18 51°19.036 2°51.418 350.9 13.5 338 14
2004-01-22 08:23:22 51°19.05 2°51.409 350.3 13.5 338 14.3
2004-01-22 08:23:28 51°19.071 2°51.397 350.7 13.4 339 14.3
2004-01-22 08:23:32 51°19.085 2°51.387 351.2 13.6 338 14.2
2004-01-22 08:23:38 51°19.106 2°51.375 350.4 13.5 340 14.2
2004-01-22 08:23:42 51°19.119 2°51.366 351.1 13.4 339 14.4
2004-01-22 08:23:48 51°19.141 2°51.355 351.9 13.4 341 14.2
2004-01-22 08:23:52 51°19.155 2°51.348 352.8 13.4 342 14.2
2004-01-22 08:23:58 51°19.176 2°51.337 353.9 13.3 342 14.3
2004-01-22 08:24:02 51°19.19 2°51.33 354.1 13.3 342 14.3
2004-01-22 08:24:08 51°19.211 2°51.319 354.1 13.4 342 14.4
2004-01-22 08:24:12 51°19.226 2°51.311 354.2 13.5 342 14.4
2004-01-22 08:24:18 51°19.247 2°51.3 354 13.6 341 14.4
2004-01-22 08:24:22 51°19.261 2°51.292 353.8 13.5 341 14.4
2004-01-22 08:24:28 51°19.283 2°51.28 353.5 13.5 341 14.5
2004-01-22 08:24:32 51°19.297 2°51.273 353.6 13.5 341 14.4
2004-01-22 08:24:38 51°19.318 2°51.261 353.7 13.5 341 14.4
2004-01-22 08:24:42 51°19.332 2°51.253 353.9 13.6 341 14.4
2004-01-22 08:24:48 51°19.354 2°51.241 353.4 13.6 341 14.3
2004-01-22 08:24:52 51°19.368 2°51.233 353.2 13.6 340 14.3
2004-01-22 08:24:58 51°19.389 2°51.221 352.7 13.5 341 14.3
2004-01-22 08:25:02 51°19.404 2°51.213 353.4 13.6 341 14.2
2004-01-22 08:25:08 51°19.425 2°51.202 353.4 13.6 341 14.2
2004-01-22 08:25:12 51°19.439 2°51.194 353.6 13.5 341 14.2
2004-01-22 08:25:18 51°19.46 2°51.182 353.5 13.4 341 14.2
2004-01-22 08:25:22 51°19.475 2°51.174 353.5 13.6 340 14.2
2004-01-22 08:25:28 51°19.496 2°51.162 352.6 13.6 340 13.9
2004-01-22 08:25:32 51°19.51 2°51.154 352.7 13.6 340 14
2004-01-22 08:25:38 51°19.532 2°51.142 352.4 13.6 340 13.8
2004-01-22 08:25:42 51°19.546 2°51.134 352.4 13.7 340 13.8
2004-01-22 08:25:48 51°19.567 2°51.122 353 13.7 342 13.9
2004-01-22 08:25:52 51°19.582 2°51.114 353.1 13.7 341 13.6
2004-01-22 08:25:58 51°19.603 2°51.102 353.1 13.7 340 13.5
2004-01-22 08:26:02 51°19.618 2°51.094 353.3 13.7 341 13.2
2004-01-22 08:26:08 51°19.639 2°51.083 353 13.5 342 12.6
2004-01-22 08:26:12 51°19.653 2°51.075 353.4 13.5 342 12.5
2004-01-22 08:26:18 51°19.675 2°51.064 354.1 13.5 342 12.2
2004-01-22 08:26:22 51°19.689 2°51.057 354.6 13.6 342 12
2004-01-22 08:26:28 51°19.71 2°51.046 354 13.6 342 11.9
2004-01-22 08:26:32 51°19.725 2°51.038 353.5 13.4 342 11.9
2004-01-22 08:26:38 51°19.746 2°51.027 353.3 13.5 342 11.8
2004-01-22 08:26:41 51°19.757 2°51.021 353.6 13.6 341 11.6
2004-01-22 08:26:48 51°19.782 2°51.008 353.5 13.5 342 11.8
2004-01-22 08:26:52 51°19.796 2°51 353.6 13.5 342 11.9
2004-01-22 08:26:58 51°19.817 2°50.99 353.5 13.5 343 11.8
2004-01-22 08:27:02 51°19.832 2°50.983 354.2 13.5 343 12
2004-01-22 08:27:08 51°19.853 2°50.972 354.2 13.6 343 11.6
2004-01-22 08:27:12 51°19.868 2°50.965 354 13.6 342 11.7
2004-01-22 08:27:18 51°19.889 2°50.954 353.9 13.6 342 11.9
2004-01-22 08:27:22 51°19.904 2°50.946 353.1 13.7 342 12
2004-01-22 08:27:28 51°19.925 2°50.935 353.4 13.7 342 12
2004-01-22 08:27:32 51°19.94 2°50.928 353.7 13.6 343 12.1
2004-01-22 08:27:38 51°19.962 2°50.918 353.8 13.6 343 12.2
2004-01-22 08:27:42 51°19.976 2°50.911 354 13.6 344 12.4
2004-01-22 08:27:48 51°19.998 2°50.9 354.3 13.8 342 12.4
2004-01-22 08:27:52 51°20.012 2°50.892 353.8 13.7 342 12.4
2004-01-22 08:27:58 51°20.034 2°50.881 353.2 13.7 342 12.5
2004-01-22 08:28:02 51°20.048 2°50.873 353.7 13.7 342 12.6
2004-01-22 08:28:08 51°20.07 2°50.862 353.2 13.7 342 12.8
2004-01-22 08:28:12 51°20.085 2°50.855 353.2 13.8 342 12.8
2004-01-22 08:28:18 51°20.106 2°50.844 353.7 13.8 343 12.9
2004-01-22 08:28:22 51°20.121 2°50.835 354.4 13.9 341 12.9
2004-01-22 08:28:28 51°20.143 2°50.824 353.8 13.9 342 12.9
2004-01-22 08:28:32 51°20.158 2°50.816 353.5 13.9 341 12.9
2004-01-22 08:28:38 51°20.18 2°50.805 353.1 13.9 342 13.2
2004-01-22 08:28:42 51°20.194 2°50.796 353.2 13.9 340 13.2
2004-01-22 08:28:48 51°20.216 2°50.785 353.4 13.9 343 13.4
2004-01-22 08:28:52 51°20.231 2°50.777 352.7 14 341 13.9
2004-01-22 08:28:58 51°20.253 2°50.765 352.7 14 341 14
2004-01-22 08:29:02 51°20.268 2°50.758 352.8 13.9 341 14.2
2004-01-22 08:29:08 51°20.289 2°50.746 353.4 14 341 14.5
2004-01-22 08:29:12 51°20.304 2°50.739 353.3 13.9 343 14.8
2004-01-22 08:29:18 51°20.326 2°50.727 353.7 13.9 342 15
2004-01-22 08:29:22 51°20.341 2°50.719 353.6 13.9 342 15.2
2004-01-22 08:29:28 51°20.362 2°50.708 353.6 13.8 342 15.3
2004-01-22 08:29:32 51°20.377 2°50.701 353.6 13.8 343 15.5
2004-01-22 08:29:38 51°20.399 2°50.689 353.8 13.9 342 15.6
2004-01-22 08:29:42 51°20.413 2°50.682 353.9 13.8 342 15.8
2004-01-22 08:29:48 51°20.435 2°50.67 354.1 13.9 340 16
2004-01-22 08:29:52 51°20.45 2°50.662 353.1 13.9 343 16.2
2004-01-22 08:29:58 51°20.472 2°50.651 353.5 13.9 341 16.5
2004-01-22 08:30:02 51°20.487 2°50.643 353.4 13.9 341 16.8
2004-01-22 08:30:08 51°20.508 2°50.63 353.1 14 340 17.1
2004-01-22 08:30:12 51°20.523 2°50.623 352.7 14 342 17.3
2004-01-22 08:30:18 51°20.545 2°50.61 353 13.9 340 17.5
2004-01-22 08:30:22 51°20.56 2°50.603 352.6 13.9 342 17.8
2004-01-22 08:30:28 51°20.581 2°50.59 352.7 13.8 342 18.1
2004-01-22 08:30:32 51°20.596 2°50.583 353.2 13.8 342 18.4
2004-01-22 08:30:38 51°20.618 2°50.571 353.3 13.8 340 18.7
2004-01-22 08:30:42 51°20.633 2°50.564 353.1 13.9 342 18.9
2004-01-22 08:30:48 51°20.655 2°50.552 353 13.9 342 19.1
2004-01-22 08:30:52 51°20.669 2°50.544 353.2 14 341 19.5
2004-01-22 08:30:58 51°20.691 2°50.532 352.7 14 341 19.7
2004-01-22 08:31:00 51°20.699 2°50.528 352.7 14 341 19.8
2004-01-22 08:31:08 51°20.728 2°50.512 352.8 14 341 20.2
2004-01-22 08:31:12 51°20.742 2°50.505 353.7 13.8 342 20.4
2004-01-22 08:31:18 51°20.764 2°50.494 354.1 13.8 342 20.7
2004-01-22 08:31:22 51°20.779 2°50.488 354.8 13.7 344 20.9
2004-01-22 08:31:28 51°20.801 2°50.478 356.5 13.5 345 21.1
2004-01-22 08:31:32 51°20.815 2°50.472 357.2 13.6 345 21.3
2004-01-22 08:31:36 51°20.83 2°50.466 356.7 13.5 345 21.5
2004-01-22 08:31:50 51°20.881 2°50.445 357.4 13.5 345 22.1
2004-01-22 08:31:56 51°20.903 2°50.435 356.6 13.7 346 22
2004-01-22 08:32:01 51°20.921 2°50.427 357.1 13.7 345 22.2
2004-01-22 08:32:06 51°20.94 2°50.42 357.4 13.7 345 22.4
2004-01-22 08:32:08 51°20.947 2°50.417 356.9 13.8 344 22.4
2004-01-22 08:32:16 51°20.976 2°50.403 357 13.7 343 22.5
2004-01-22 08:32:20 51°20.991 2°50.397 355.6 13.7 346 22.5
2004-01-22 08:32:26 51°21.013 2°50.387 356.7 13.8 345 22.7
2004-01-22 08:32:30 51°21.028 2°50.381 356.9 13.8 345 22.4
2004-01-22 08:32:36 51°21.05 2°50.37 357 13.9 342 22.5
2004-01-22 08:32:50 51°21.102 2°50.347 354.9 13.7 345 22.7
2004-01-22 08:32:56 51°21.123 2°50.336 356 13.8 344 22.6
2004-01-22 08:33:00 51°21.138 2°50.33 356.5 13.7 347 22.7
2004-01-22 08:33:06 51°21.161 2°50.322 358 13.9 347 22.7
2004-01-22 08:33:08 51°21.168 2°50.319 358.6 13.8 347 22.6
2004-01-22 08:33:16 51°21.199 2°50.309 358.8 13.9 347 22.5
2004-01-22 08:33:20 51°21.213 2°50.303 358.5 13.8 348 22.5
2004-01-22 08:33:26 51°21.236 2°50.295 359.1 13.8 348 22.5
2004-01-22 08:33:30 51°21.251 2°50.29 359.7 13.8 348 22.7
2004-01-22 08:33:36 51°21.273 2°50.283 359.4 13.7 348 22.8
2004-01-22 08:33:40 51°21.288 2°50.278 359.3 13.7 349 22.7
2004-01-22 08:33:46 51°21.31 2°50.271 0.2 13.8 349 22.7
2004-01-22 08:33:50 51°21.325 2°50.266 0.5 13.7 349 22.5
2004-01-22 08:33:56 51°21.348 2°50.258   13.8 346 22.5
2004-01-22 08:34:00 51°21.362 2°50.253 358.6 13.6 350 22.5
2004-01-22 08:34:06 51°21.385 2°50.245 359.6 13.8 347 22.4
2004-01-22 08:34:08 51°21.392 2°50.243 359.2 13.8 349 22.3
2004-01-22 08:34:16 51°21.422 2°50.234 359.9 13.7 348 22.2
2004-01-22 08:34:20 51°21.437 2°50.229   13.7 349 22.3
2004-01-22 08:34:26 51°21.46 2°50.222   13.7 348 22.2
2004-01-22 08:34:30 51°21.475 2°50.217 359.6 13.7 349 22.1
2004-01-22 08:34:36 51°21.497 2°50.21 359.4 13.8 348 22
2004-01-22 08:34:40 51°21.512 2°50.205 359.5 13.7 349 22
2004-01-22 08:34:45 51°21.531 2°50.199   13.7 347 21.9
2004-01-22 08:34:50 51°21.549 2°50.193 358.8 13.7 349 22
2004-01-22 08:34:56 51°21.572 2°50.186 359.2 13.8 349 22
2004-01-22 08:35:01 51°21.591 2°50.181 359.5 13.7 350 21.8
2004-01-22 08:35:06 51°21.609 2°50.174 0.9 13.7 349 22
2004-01-22 08:35:08 51°21.617 2°50.172 0.1 13.7 350 22
2004-01-22 08:35:16 51°21.646 2°50.164 359.9 13.7 349 21.9
2004-01-22 08:35:20 51°21.661 2°50.159 0.1 13.7 349 21.8
2004-01-22 08:35:26 51°21.684 2°50.152 0.1 13.7 349 21.8
2004-01-22 08:35:30 51°21.699 2°50.148   13.7 349 21.8
2004-01-22 08:35:36 51°21.721 2°50.142 359.9 13.8 350 21.7
2004-01-22 08:35:40 51°21.736 2°50.137 0.3 13.9 349 21.7
2004-01-22 08:35:46 51°21.759 2°50.13 359.8 13.9 349 21.7
2004-01-22 08:35:50 51°21.774 2°50.125 359.8 14 348 21.8
2004-01-22 08:35:56 51°21.797 2°50.117 359 13.8 348 21.8
2004-01-22 08:36:00 51°21.812 2°50.112 358.3 13.8 348 21.8
2004-01-22 08:36:06 51°21.834 2°50.106 359.1 13.8 351 21.9
2004-01-22 08:36:10 51°21.849 2°50.101 359.5 13.9 348 21.9
2004-01-22 08:36:16 51°21.872 2°50.095 359.9 13.9 349 22
2004-01-22 08:36:20 51°21.887 2°50.09 359.7 14 350 22.1
2004-01-22 08:36:26 51°21.91 2°50.083   14 348 22.1
2004-01-22 08:36:31 51°21.929 2°50.077 359.2 13.9 349 22.2
2004-01-22 08:36:36 51°21.948 2°50.07 358 13.9 347 22.2
2004-01-22 08:36:40 51°21.963 2°50.066 358 13.9 349 22.3
2004-01-22 08:36:46 51°21.986 2°50.058 358.9 13.9 348 22.5
2004-01-22 08:36:50 51°22.001 2°50.053 358.8 13.8 348 22.8
2004-01-22 08:36:56 51°22.023 2°50.045 358.5 13.8 348 22.7
2004-01-22 08:37:00 51°22.038 2°50.041 358.5 13.8 349 22.7
2004-01-22 08:37:06 51°22.061 2°50.034 358.8 13.8 349 22.7
2004-01-22 08:37:10 51°22.075 2°50.028 358.6 13.6 348 22.8
2004-01-22 08:37:16 51°22.098 2°50.021 358.4 13.7 347 22.8
2004-01-22 08:37:20 51°22.113 2°50.016 358.2 13.6 348 22.9
2004-01-22 08:37:26 51°22.134 2°50.009 358.8 13.6 348 22.8
2004-01-22 08:37:30 51°22.149 2°50.003 358.8 13.5 348 22.9
2004-01-22 08:37:36 51°22.171 2°49.996 358.6 13.5 348 22.9
2004-01-22 08:37:40 51°22.186 2°49.992 358.8 13.5 349 22.8
2004-01-22 08:37:46 51°22.208 2°49.985 358.9 13.4 350 22.8
2004-01-22 08:37:50 51°22.222 2°49.98 359.8 13.3 347 22.8
2004-01-22 08:37:56 51°22.244 2°49.974   13.3 350 22.6
2004-01-22 08:38:00 51°22.258 2°49.969 0.1 13.4 346 22.2
2004-01-22 08:38:06 51°22.28 2°49.963 359.1 13.3 351 22.3
2004-01-22 08:38:11 51°22.299 2°49.956 0.2 13.5 348 22.4
2004-01-22 08:38:16 51°22.317 2°49.95 359.6 13.4 349 22.6
2004-01-22 08:38:20 51°22.331 2°49.945 358.9 13.5 348 22.4
2004-01-22 08:38:26 51°22.353 2°49.939 358.9 13.6 349 22.7
2004-01-22 08:38:30 51°22.368 2°49.934 359.7 13.6 350 22.8
2004-01-22 08:38:36 51°22.39 2°49.926 359 13.6 348 22.5
2004-01-22 08:38:40 51°22.405 2°49.921 358.5 13.6 347 22.1
2004-01-22 08:38:46 51°22.427 2°49.914 358.1 13.5 349 21.2
2004-01-22 08:38:50 51°22.442 2°49.908 358.7 13.6 347 20.5
2004-01-22 08:38:56 51°22.463 2°49.902 359.4 13.4 349 20.8
2004-01-22 08:39:00 51°22.478 2°49.897 359.5 13.4 349 21.8
2004-01-22 08:39:04 51°22.493 2°49.893 359.8 13.4 350 22.7
2004-01-22 08:39:10 51°22.515 2°49.888 0.4 13.5 352 22.3
2004-01-22 08:39:16 51°22.537 2°49.882 0.7 13.5 351 21.9
2004-01-22 08:39:20 51°22.552 2°49.877 0.1 13.5 349 21
2004-01-22 08:39:26 51°22.574 2°49.87 359.6 13.5 348 20.6
2004-01-22 08:39:30 51°22.589 2°49.866 357.9 13.5 349 19.4
2004-01-22 08:39:36 51°22.611 2°49.858 359 13.5 347 18.8
2004-01-22 08:39:40 51°22.625 2°49.853 358.1 13.4 349 17.7
2004-01-22 08:39:46 51°22.647 2°49.847 358.5 13.4 348 17.1
2004-01-22 08:39:50 51°22.662 2°49.841 358.8 13.4 348 18.9
2004-01-22 08:39:56 51°22.683 2°49.835 358.8 13.3 350 19.9
2004-01-22 08:40:00 51°22.698 2°49.831 359 13.3 350 19.2
2004-01-22 08:40:04 51°22.713 2°49.827 359.1 13.3 351 18.5
2004-01-22 08:40:10 51°22.734 2°49.821 0.5 13.2 350 17.7
2004-01-22 08:40:16 51°22.756 2°49.814 359.8 13.2 348 17.1
2004-01-22 08:40:20 51°22.77 2°49.809 358.4 13.1 349 15.9
2004-01-22 08:40:26 51°22.791 2°49.802 358.4 12.9 348 14.3
2004-01-22 08:40:30 51°22.805 2°49.799 358.9 12.8 350 15.8
2004-01-22 08:40:36 51°22.826 2°49.792 359.2 12.8 350 16.5
2004-01-22 08:40:40 51°22.841 2°49.789 359.6 13 352 15.9
2004-01-22 08:40:46 51°22.862 2°49.784 0.4 13 351 14.2
2004-01-22 08:40:51 51°22.88 2°49.778 0.8 13 349 11.9
2004-01-22 08:40:56 51°22.897 2°49.774 359.5 12.7 352 14.2
2004-01-22 08:41:00 51°22.911 2°49.77 0.9 12.8 350 15.5
2004-01-22 08:41:06 51°22.932 2°49.766 0.6 12.8 350 15.7
2004-01-22 08:41:10 51°22.947 2°49.762 1.6 13.1 352 15.5
2004-01-22 08:41:16 51°22.968 2°49.756 0.7 13.2 349 16.5
2004-01-22 08:41:20 51°22.983 2°49.751 359.8 13.1 348 15.4
2004-01-22 08:41:26 51°23.004 2°49.745 359.1 13 350 14.1
2004-01-22 08:41:30 51°23.018 2°49.74 359.4 12.9 349 16.3
2004-01-22 08:41:36 51°23.039 2°49.734 359 13 350 16.6
2004-01-22 08:41:40 51°23.053 2°49.73 359.4 13.1 350 15.8
2004-01-22 08:41:45 51°23.071 2°49.725 0.1 13.1 350 16.2
2004-01-22 08:41:50 51°23.089 2°49.72 359.4 13.1 349 15.6
2004-01-22 08:41:56 51°23.11 2°49.713 359.9 13 346 14.7
2004-01-22 08:42:00 51°23.124 2°49.708 358.2 12.8 349 15.5
2004-01-22 08:42:06 51°23.145 2°49.703 358.6 12.8 349 16.5
2004-01-22 08:42:10 51°23.159 2°49.698 0.5 12.9 349 17.1
2004-01-22 08:42:16 51°23.18 2°49.694 0.5 12.9 354 17.8
2004-01-22 08:42:20 51°23.194 2°49.689 0.7 13 349 17.7
2004-01-22 08:42:26 51°23.216 2°49.683 0.8 13 351 16
2004-01-22 08:42:30 51°23.23 2°49.677   13.2 347 16.2
2004-01-22 08:42:36 51°23.252 2°49.67 359.1 13.1 347 17.5
2004-01-22 08:42:50 51°23.303 2°49.653 358.7 13.4 347 19.2
2004-01-22 08:42:56 51°23.324 2°49.645 358.7 13.2 347 19.4
2004-01-22 08:43:00 51°23.338 2°49.641 358.3 13.2 350 18.6
2004-01-22 08:43:06 51°23.36 2°49.634 359.3 13.2 348 18.6
2004-01-22 08:43:10 51°23.374 2°49.63 359.2 13.1 350 19.3
2004-01-22 08:43:16 51°23.395 2°49.623 359.8 13.1 349 19.6
2004-01-22 08:43:20 51°23.41 2°49.618 359.6 13 348 19.6
2004-01-22 08:43:26 51°23.43 2°49.611 359.4 12.9 348 19.8
2004-01-22 08:43:30 51°23.445 2°49.607 359.3 12.9 348 19.8
2004-01-22 08:43:36 51°23.466 2°49.6 359.7 12.9 349 20
2004-01-22 08:43:40 51°23.48 2°49.597 0.1 13 350 20.2
2004-01-22 08:43:46 51°23.502 2°49.59 0.1 13.1 349 20.6
2004-01-22 08:43:50 51°23.516 2°49.585 0.6 13.2 349 20.8
2004-01-22 08:43:56 51°23.538 2°49.577 359.2 13.4 348 21.1
2004-01-22 08:44:00 51°23.552 2°49.572 358.4 13.5 347 21.2
2004-01-22 08:44:06 51°23.574 2°49.563 358.1 13.4 344 21.5
2004-01-22 08:44:10 51°23.588 2°49.556 355.9 13.4 343 21.8
2004-01-22 08:44:16 51°23.61 2°49.549 357 13.5 347 21.8
2004-01-22 08:44:20 51°23.625 2°49.542 357.9 13.5 347 22
2004-01-22 08:44:25 51°23.643 2°49.538 358.9 13.3 349 22.2
2004-01-22 08:44:30 51°23.661 2°49.53 358.8 13.3 346 22.2
2004-01-22 08:44:36 51°23.683 2°49.525 359.2 13.3 351 22.2
2004-01-22 08:44:40 51°23.697 2°49.52 1.5 13.4 348 22.1
2004-01-22 08:44:46 51°23.719 2°49.513 1.1 13.4 348 22.1
2004-01-22 08:44:50 51°23.734 2°49.507 359.1 13.4 345 22.3
2004-01-22 08:44:56 51°23.756 2°49.499 357.7 13.5 347 22
2004-01-22 08:45:00 51°23.77 2°49.492 358.9 13.7 345 22
2004-01-22 08:45:06 51°23.792 2°49.484 357.5 13.6 345 22
2004-01-22 08:45:10 51°23.806 2°49.477 356.7 13.6 345 21.9
2004-01-22 08:45:16 51°23.828 2°49.469 358 13.5 348 21.9
2004-01-22 08:45:20 51°23.843 2°49.463 357.6 13.3 346 21.5
2004-01-22 08:45:26 51°23.864 2°49.456 358.2 13.2 348 21.6
2004-01-22 08:45:30 51°23.878 2°49.45 358.9 13.2 347 21.6
2004-01-22 08:45:36 51°23.9 2°49.443 359.1 13.2 348 21.8
2004-01-22 08:45:40 51°23.914 2°49.439 0.1 13.2 348 21.9
2004-01-22 08:45:46 51°23.936 2°49.431 0.4 13.2 348 21.8
2004-01-22 08:45:50 51°23.95 2°49.427 0.2 13.3 349 21.8
2004-01-22 08:45:56 51°23.972 2°49.42 0.1 13.3 348 21.7
2004-01-22 08:46:00 51°23.986 2°49.415 359.6 13.3 348 21.8
2004-01-22 08:46:05 51°24.004 2°49.408 0.4 13.3 347 22
2004-01-22 08:46:10 51°24.022 2°49.402 359.7 13.4 348 22.2
2004-01-22 08:46:16 51°24.044 2°49.394 359 13.3 349 22.3
2004-01-22 08:46:20 51°24.059 2°49.39 0.1 13.3 349 22.5
2004-01-22 08:46:26 51°24.08 2°49.382 0.3 13.2 346 22.3
2004-01-22 08:46:30 51°24.094 2°49.378 359.2 13.1 348 22.3
2004-01-22 08:46:36 51°24.115 2°49.37 359.7 13.1 349 22.3
2004-01-22 08:46:40 51°24.13 2°49.366 0.4 13.2 350 22.2
2004-01-22 08:46:46 51°24.151 2°49.358 0.8 13.2 348 22.4
2004-01-22 08:46:50 51°24.166 2°49.353   13.2 348 22.7
2004-01-22 08:46:56 51°24.187 2°49.345   13.2 346 22.5
2004-01-22 08:47:00 51°24.202 2°49.341 358.9 13.2 350 22.2
2004-01-22 08:47:06 51°24.223 2°49.335 359.9 13.3 350 22
2004-01-22 08:47:10 51°24.238 2°49.33 1.9 13.4 348 22.2
2004-01-22 08:47:16 51°24.26 2°49.322 0.5 13.4 347 22.3
2004-01-22 08:47:20 51°24.274 2°49.316 358.8 13.4 347 22.5
2004-01-22 08:47:25 51°24.292 2°49.31 358.4 13.3 349 22.3
2004-01-22 08:47:30 51°24.311 2°49.303 359.8 13.5 347 22.2
2004-01-22 08:47:36 51°24.333 2°49.296 358.4 13.4 349 22.1
2004-01-22 08:47:40 51°24.347 2°49.29 359.4 13.6 347 22.3
2004-01-22 08:47:46 51°24.369 2°49.282 359.5 13.6 347 22
2004-01-22 08:47:51 51°24.388 2°49.275 358.7 13.7 346 22
2004-01-22 08:47:56 51°24.406 2°49.267 358.4 13.7 346 22.1
2004-01-22 08:48:00 51°24.421 2°49.261 357.7 13.8 346 22
2004-01-22 08:48:06 51°24.443 2°49.253 357.3 13.8 347 21.8
2004-01-22 08:48:10 51°24.458 2°49.246 357.4 13.8 344 22
2004-01-22 08:48:16 51°24.48 2°49.237 357.2 13.7 345 21.8
2004-01-22 08:48:20 51°24.495 2°49.23 356.8 13.7 345 22
2004-01-22 08:48:26 51°24.516 2°49.221 356 13.5 346 21.9
2004-01-22 08:48:31 51°24.535 2°49.214 357.6 13.5 346 21.9
2004-01-22 08:48:36 51°24.553 2°49.209 359.2 13.5 348 21.7
2004-01-22 08:48:40 51°24.568 2°49.203 359.8 13.5 347 21.8
2004-01-22 08:48:46 51°24.59 2°49.196 359.1 13.5 348 21.7
2004-01-22 08:48:50 51°24.604 2°49.19 359.1 13.4 347 21.8
2004-01-22 08:48:56 51°24.626 2°49.184 359.4 13.3 349 21.8
2004-01-22 08:49:00 51°24.64 2°49.179 0.1 13.3 349 21
2004-01-22 08:49:06 51°24.662 2°49.173 0.7 13.2 350 21.3
2004-01-22 08:49:08 51°24.669 2°49.171 1.4 13.3 349 21.6
2004-01-22 08:49:16 51°24.698 2°49.161 0.7 13.3 347 22
2004-01-22 08:49:20 51°24.712 2°49.156 359.3 13.2 347 21.8
2004-01-22 08:49:26 51°24.734 2°49.148 359.2 13.3 347 21.8
2004-01-22 08:49:30 51°24.749 2°49.142 359 13.4 346 21.7
2004-01-22 08:49:36 51°24.77 2°49.134 358.2 13.3 348 21.2
2004-01-22 08:49:40 51°24.785 2°49.128 358.7 13.4 346 19.9
2004-01-22 08:49:45 51°24.803 2°49.122 358.3 13.3 348 21.4
2004-01-22 08:49:50 51°24.821 2°49.115 359.2 13.4 347 22
2004-01-22 08:49:56 51°24.842 2°49.107 359.2 13.3 348 22.1
2004-01-22 08:50:01 51°24.86 2°49.101 359.4 13.3 347 22.2
2004-01-22 08:50:06 51°24.878 2°49.094 359.5 13.3 346 22.1
2004-01-22 08:50:08 51°24.885 2°49.091 358.6 13.3 346 22.1
2004-01-22 08:50:16 51°24.914 2°49.08 358.5 13.3 346 22.2
2004-01-22 08:50:20 51°24.929 2°49.076 358.3 13.3 348 22.2
2004-01-22 08:50:26 51°24.951 2°49.068 359.2 13.4 347 22.1
2004-01-22 08:50:30 51°24.965 2°49.064 0.5 13.4 350 22.2
2004-01-22 08:50:36 51°24.987 2°49.056   13.5 348 22.1
2004-01-22 08:50:40 51°25.001 2°49.05 359.3 13.3 347 22.2
2004-01-22 08:50:46 51°25.023 2°49.043 359.4 13.2 347 22.3
2004-01-22 08:50:50 51°25.037 2°49.037 358.7 13.2 346 22.2
2004-01-22 08:50:56 51°25.059 2°49.03 358.7 13.2 347 22.3
2004-01-22 08:51:00 51°25.073 2°49.024 358.7 13.3 346 22.6
2004-01-22 08:51:06 51°25.095 2°49.016 358.9 13.3 348 22.7
2004-01-22 08:51:10 51°25.109 2°49.01 358.3 13.3 345 22.7
2004-01-22 08:51:16 51°25.13 2°49.003 358.5 13.4 346 22.7
2004-01-22 08:51:20 51°25.145 2°48.997 358.8 13.4 346 22.8
2004-01-22 08:51:26 51°25.167 2°48.989 359 13.6 346 22.8
2004-01-22 08:51:30 51°25.181 2°48.982 358.9 13.7 345 22.9
2004-01-22 08:51:36 51°25.203 2°48.973 357.3 13.7 345 22.9
2004-01-22 08:51:40 51°25.218 2°48.967 356.4 13.5 345 23
2004-01-22 08:51:46 51°25.239 2°48.957 356.5 13.4 345 23.2
2004-01-22 08:51:51 51°25.258 2°48.95 356.6 13.4 347 23.2
2004-01-22 08:51:56 51°25.276 2°48.945 358.4 13.3 350 23.3
2004-01-22 08:52:00 51°25.29 2°48.939 0.7 13.4 347 23.6
2004-01-22 08:52:06 51°25.312 2°48.932 359.5 13.3 347 23.7
2004-01-22 08:52:10 51°25.326 2°48.926 358.9 13.3 346 23.7
2004-01-22 08:52:16 51°25.347 2°48.919 358.8 13.2 348 23.7
2004-01-22 08:52:20 51°25.362 2°48.913 359.5 13.2 347 23.7
2004-01-22 08:52:26 51°25.383 2°48.906 359.3 13.2 349 23.6
2004-01-22 08:52:31 51°25.401 2°48.9 0.2 13.2 348 23.8
2004-01-22 08:52:36 51°25.419 2°48.895   13.3 349 23.9
2004-01-22 08:52:40 51°25.434 2°48.889 0.2 13.2 348 23.9
2004-01-22 08:52:46 51°25.455 2°48.883 1.2 13.2 350 23.8
2004-01-22 08:52:50 51°25.47 2°48.877 359.4 13.3 345 23.7
2004-01-22 08:52:56 51°25.491 2°48.87 359.3 13.4 348 23.7
2004-01-22 08:53:01 51°25.509 2°48.863 359.5 13.3 348 24
2004-01-22 08:53:06 51°25.527 2°48.859 359.9 13 352 24.1
2004-01-22 08:53:08 51°25.534 2°48.856   13.2 346 24.1
2004-01-22 08:53:16 51°25.563 2°48.846 0.1 13.1 347 24
2004-01-22 08:53:20 51°25.577 2°48.842 359.8 13.2 349 23.9
2004-01-22 08:53:26 51°25.598 2°48.833 358.2 13.3 345 23.8
2004-01-22 08:53:30 51°25.612 2°48.827 357 13.3 345 23.9
2004-01-22 08:53:36 51°25.634 2°48.817 354.1 13.3 347 24.1
2004-01-22 08:53:40 51°25.648 2°48.811 355.1 13.5 343 24.1
2004-01-22 08:53:46 51°25.669 2°48.799 353.1 13.4 341 24
2004-01-22 08:53:51 51°25.686 2°48.791 354.9 13.2 346 23.8
2004-01-22 08:53:56 51°25.703 2°48.782 354.9 12.7 342 23.8
2004-01-22 08:54:00 51°25.716 2°48.774 353.2 12.5 341 23.7
2004-01-22 08:54:06 51°25.736 2°48.764 353.2 12.4 341 23.7
2004-01-22 08:54:10 51°25.749 2°48.757 351.9 12.1 340 23.6
2004-01-22 08:54:16 51°25.767 2°48.746 352.3 11.9 338 23.6
2004-01-22 08:54:20 51°25.779 2°48.738 350.7 11.7 338 23.4
2004-01-22 08:54:26 51°25.797 2°48.726 349.7 11.7 338 23.5
2004-01-22 08:54:31 51°25.812 2°48.716 349.5 11.5 337 23.4
2004-01-22 08:54:36 51°25.826 2°48.706 347.9 11.2 336 23.4
2004-01-22 08:54:40 51°25.837 2°48.698 348 10.8 335 23.4
2004-01-22 08:54:46 51°25.852 2°48.684 345.8 10.8 335 23.3
2004-01-22 08:54:50 51°25.862 2°48.675 344 10.3 330 23.5
2004-01-22 08:54:56 51°25.876 2°48.661 341.2 10 328 23.3
2004-01-22 08:55:00 51°25.885 2°48.651 340 9.8 325 23.5
2004-01-22 08:55:06 51°25.898 2°48.636 338.3 9.6 326 23.6
2004-01-22 08:55:10 51°25.906 2°48.627 337 9.4 324 23.7
2004-01-22 08:55:16 51°25.918 2°48.611 335.3 8.7 320 23.9
2004-01-22 08:55:20 51°25.925 2°48.602 334.5 8.4 320 23.9
2004-01-22 08:55:26 51°25.935 2°48.587 332.2 8.2 316 23.6
2004-01-22 08:55:31 51°25.942 2°48.575 330.9 7.8 315 23.7
2004-01-22 08:55:36 51°25.949 2°48.563 328.6 7.3 310 23.5
2004-01-22 08:55:40 51°25.954 2°48.554 325.9 6.9 310 23.4
2004-01-22 08:55:46 51°25.961 2°48.539 323 6.7 306 23.6
2004-01-22 08:55:50 51°25.965 2°48.53 320.9 6.4 307 23.5
2004-01-22 08:55:56 51°25.971 2°48.516 319.7 6.2 305 23.4
2004-01-22 08:56:00 51°25.975 2°48.508 320.4 6 308 23.2
2004-01-22 08:56:06 51°25.982 2°48.496 323.7 6 310 22.9
2004-01-22 08:56:10 51°25.986 2°48.488 325.4 5.7 311 23
2004-01-22 08:56:16 51°25.991 2°48.478 327.3 4.9 310 23.2
2004-01-22 08:56:20 51°25.994 2°48.471 327.6 4.6 309 23.2
2004-01-22 08:56:26 51°25.999 2°48.463 329 4.2 310 23.2
2004-01-22 08:56:30 51°26.001 2°48.458 332.1 3.7 311 23.3
2004-01-22 08:56:36 51°26.004 2°48.452 336.6 2.9 313 23.4
2004-01-22 08:56:40 51°26.007 2°48.45 340.7 2.5 317 23.5
2004-01-22 08:56:46 51°26.009 2°48.445 347.4 2.2 315 23.4
2004-01-22 08:56:50 51°26.01 2°48.443 352.4 1.7 313 23.4
2004-01-22 08:56:56 51°26.012 2°48.44 356.7 1.4 301 23.4
2004-01-22 08:57:00 51°26.013 2°48.438 359.8 1.1 298 23.4
2004-01-22 08:57:06 51°26.013 2°48.436 4.3 1 290 23.5
2004-01-22 08:57:11 51°26.013 2°48.434 7.2 1 273 23.5
2004-01-22 08:57:16 51°26.013 2°48.432 10.8 0.8 263 23.5
2004-01-22 08:57:20 51°26.013 2°48.43 13.3 1 264 23.3
2004-01-22 08:57:26 51°26.012 2°48.427 16.2 1 259 23.2
2004-01-22 08:57:30 51°26.012 2°48.426 18.3 0.9 257 23.5
2004-01-22 08:57:36 51°26.012 2°48.423 20.9 0.9 270 23.4
2004-01-22 08:57:40 51°26.012 2°48.422 22.7 0.8 276 23.4
2004-01-22 08:57:46 51°26.013 2°48.42 25.2 0.7 293 23.5
2004-01-22 08:57:51 51°26.013 2°48.419 27.8 0.7 308 23.5
2004-01-22 08:57:56 51°26.014 2°48.418 31.7 0.6 313 23.5
2004-01-22 08:58:00 51°26.014 2°48.418 34.3 0.5 327 23.5
2004-01-22 08:58:06 51°26.015 2°48.417 38.6 0.6 353 23.3
2004-01-22 08:58:10 51°26.016 2°48.417 42.1 0.6 352 23.2
2004-01-22 08:58:16 51°26.017 2°48.418 44.5 0.6 11 23.1
2004-01-22 08:58:20 51°26.018 2°48.418 47.7 0.5 15 23.1
2004-01-22 08:58:26 51°26.019 2°48.418 51.5 0.4 9 23.2
2004-01-22 08:58:30 51°26.019 2°48.418 53.4 0.3 20 23.2
2004-01-22 08:58:36 51°26.019 2°48.418 56.2 0.2 357 23.3
2004-01-22 08:58:40 51°26.019 2°48.418 57.8 0.1 316 23.3
2004-01-22 08:58:46 51°26.019 2°48.418 60.5 0.1 272 23.2
2004-01-22 08:58:51 51°26.019 2°48.418 62.4 0.2 290 23.3
2004-01-22 08:58:56 51°26.019 2°48.418 64.6 0.1 320 23.2
2004-01-22 08:59:00 51°26.019 2°48.418 66.2 0.1 39 23.2
2004-01-22 08:59:06 51°26.019 2°48.418 68.1 0.1 41 23.3
2004-01-22 08:59:11 51°26.019 2°48.418 69.6 0.1 24 23.3
2004-01-22 08:59:16 51°26.019 2°48.419 71.4 0.2 72 23.2
2004-01-22 08:59:20 51°26.019 2°48.419 72.5 0.2 81 23.3
2004-01-22 08:59:26 51°26.019 2°48.42 73.7 0.2 81 23.3
2004-01-22 08:59:30 51°26.019 2°48.42 74.6 0.3 88 23.4
2004-01-22 08:59:36 51°26.019 2°48.421 75.4 0.4 102 23.4
2004-01-22 08:59:40 51°26.019 2°48.422 76.1 0.4 106 23.3
2004-01-22 08:59:46 51°26.019 2°48.423 77.3 0.4 94 23.3
2004-01-22 08:59:50 51°26.019 2°48.424 78.6 0.5 97 23.2
2004-01-22 08:59:56 51°26.019 2°48.425 79.8 0.5 116 23.2
2004-01-22 09:00:00 51°26.019 2°48.426 81 0.5 114 23.2
2004-01-22 09:00:06 51°26.018 2°48.427 82 0.6 120 23.2
2004-01-22 09:00:10 51°26.018 2°48.428 83.4 0.6 113 23.3
2004-01-22 09:00:16 51°26.018 2°48.429 84.6 0.6 114 23.4
2004-01-22 09:00:20 51°26.017 2°48.431 85.7 0.6 108 23.6
2004-01-22 09:00:26 51°26.017 2°48.432 86.9 0.6 117 23.5
2004-01-22 09:00:30 51°26.016 2°48.433 87.8 0.6 118 23.5
2004-01-22 09:00:36 51°26.016 2°48.435 89 0.8 119 23.5
2004-01-22 09:00:40 51°26.016 2°48.436 89.8 0.7 118 23.4
2004-01-22 09:00:46 51°26.015 2°48.437 90.7 0.7 115 23.4
2004-01-22 09:00:50 51°26.014 2°48.438 91.4 0.7 119 23.4
2004-01-22 09:00:56 51°26.014 2°48.44 92.7 0.7 116 23.4
2004-01-22 09:01:00 51°26.013 2°48.441 93.6 0.9 127 23.4
2004-01-22 09:01:06 51°26.013 2°48.443 94.5 0.8 118 23.4
2004-01-22 09:01:10 51°26.012 2°48.444 95.3 0.8 128 23.4
2004-01-22 09:01:16 51°26.012 2°48.445 95.9 0.8 126 23.4
2004-01-22 09:01:20 51°26.011 2°48.446 96.5 0.8 127 23.5
2004-01-22 09:01:26 51°26.01 2°48.448 97.3 0.8 128 23.5
2004-01-22 09:01:30 51°26.01 2°48.45 97.9 0.8 129 23.5
2004-01-22 09:01:36 51°26.009 2°48.451 98.6 0.8 124 23.6
2004-01-22 09:01:40 51°26.008 2°48.453 98.9 0.9 130 23.6
2004-01-22 09:01:46 51°26.007 2°48.454 99.4 0.9 129 23.5
2004-01-22 09:01:51 51°26.007 2°48.456 99.9 0.8 127 23.4
2004-01-22 09:01:56 51°26.006 2°48.457 100.3 0.8 130 23.5
2004-01-22 09:02:00 51°26.005 2°48.459 100.6 0.8 131 23.3
2004-01-22 09:02:06 51°26.004 2°48.46 101.3 0.9 124 23.3
2004-01-22 09:02:11 51°26.003 2°48.462 102 0.9 135 23.3
2004-01-22 09:02:16 51°26.002 2°48.463 103 0.9 133 23.3
2004-01-22 09:02:20 51°26.001 2°48.464 103.4 1 138 23.4
2004-01-22 09:02:26 51°26 2°48.466 104.1 1 138 23.4
2004-01-22 09:02:30 51°26 2°48.467 104.9 1 137 23.4
2004-01-22 09:02:36 51°25.998 2°48.469 105.4 1 137 23.5
2004-01-22 09:02:40 51°25.997 2°48.47 105.9 1.1 142 23.6
2004-01-22 09:02:46 51°25.996 2°48.472 106.8 0.9 136 23.6
2004-01-22 09:02:50 51°25.995 2°48.473 107.4 1 140 23.6
2004-01-22 09:02:56 51°25.994 2°48.475 107.6 1 140 23.6
2004-01-22 09:03:00 51°25.993 2°48.476 107.7 1 136 23.4
2004-01-22 09:03:06 51°25.992 2°48.478 108.1 1 139 23.2
2004-01-22 09:03:10 51°25.99 2°48.479 108.1 1 144 23.2
2004-01-22 09:03:16 51°25.989 2°48.481 108.1 1 146 23.2
2004-01-22 09:03:20 51°25.988 2°48.482 108.3 1 141 23.1
2004-01-22 09:03:26 51°25.987 2°48.483 108.3 1 146 23.4
2004-01-22 09:03:31 51°25.986 2°48.485 108.4 0.9 143 23.5
2004-01-22 09:03:36 51°25.985 2°48.486 108.5 1 148 23.5
2004-01-22 09:03:40 51°25.984 2°48.487 108.8 0.8 141 23.6
2004-01-22 09:03:46 51°25.983 2°48.488 108.7 0.9 148 23.5
2004-01-22 09:03:50 51°25.982 2°48.489 108.4 0.8 142 23.5
2004-01-22 09:03:56 51°25.982 2°48.49 108 0.8 142 23.4
2004-01-22 09:04:00 51°25.981 2°48.491 108 0.8 145 23.2
2004-01-22 09:04:06 51°25.98 2°48.492 108 0.8 148 23.3
2004-01-22 09:04:10 51°25.979 2°48.493 107.8 0.8 148 23.3
2004-01-22 09:04:16 51°25.978 2°48.494 108.3 0.8 151 23.4
2004-01-22 09:04:20 51°25.977 2°48.495 108.8 0.8 149 23.6
2004-01-22 09:04:26 51°25.976 2°48.496 109 0.7 146 23.6
2004-01-22 09:04:30 51°25.975 2°48.497 109.6 0.7 140 23.6
2004-01-22 09:04:36 51°25.974 2°48.498 110.3 0.8 147 23.5
2004-01-22 09:04:40 51°25.973 2°48.499 110.8 0.8 145 23.4
2004-01-22 09:04:46 51°25.972 2°48.499 111.2 0.8 145 23.2
2004-01-22 09:04:50 51°25.971 2°48.5 111.7 0.8 151 23.1
2004-01-22 09:04:56 51°25.97 2°48.501 111.4 0.8 150 23.3
2004-01-22 09:05:00 51°25.969 2°48.502 111 0.8 149 23.5
2004-01-22 09:05:06 51°25.968 2°48.503 111.1 0.7 149 23.6
2004-01-22 09:05:11 51°25.967 2°48.504 110.8 0.8 149 23.5
2004-01-22 09:05:16 51°25.966 2°48.504 110.5 0.8 148 23.6
2004-01-22 09:05:20 51°25.965 2°48.505 109.6 0.9 151 23.5
2004-01-22 09:05:26 51°25.964 2°48.506 109.2 0.8 147 23.5
2004-01-22 09:05:31 51°25.963 2°48.507 108.8 0.8 147 23.5
2004-01-22 09:05:36 51°25.962 2°48.509 108.8 0.8 146 23.5
2004-01-22 09:05:40 51°25.962 2°48.51 109 0.9 150 23.5
2004-01-22 09:05:46 51°25.961 2°48.511 109 0.9 145 23.5
2004-01-22 09:05:50 51°25.96 2°48.512 108.8 0.9 149 23.6
2004-01-22 09:05:56 51°25.958 2°48.513 108.6 0.8 146 23.6
2004-01-22 09:06:00 51°25.958 2°48.514 108.8 0.9 148 23.6
2004-01-22 09:06:06 51°25.956 2°48.515 108.6 0.9 148 23.6
2004-01-22 09:06:10 51°25.956 2°48.516 108.3 0.8 148 23.6
2004-01-22 09:06:16 51°25.955 2°48.517 108.1 0.8 143 23.6
2004-01-22 09:06:20 51°25.954 2°48.518 107.6 0.8 145 23.6
2004-01-22 09:06:26 51°25.953 2°48.519 106.6 0.8 146 23.6
2004-01-22 09:06:31 51°25.952 2°48.52 105.9 0.8 148 23.7
2004-01-22 09:06:36 51°25.951 2°48.521 105.2 0.8 147 23.7
2004-01-22 09:06:40 51°25.95 2°48.522 104.5 0.8 140 23.6
2004-01-22 09:06:46 51°25.95 2°48.523 103.6 0.8 140 23.6
2004-01-22 09:06:50 51°25.949 2°48.524 102.6 0.7 136 23.5
2004-01-22 09:06:56 51°25.948 2°48.526 102.2 0.7 133 23.6
2004-01-22 09:07:00 51°25.948 2°48.526 101.4 0.7 136 23.6
2004-01-22 09:07:06 51°25.947 2°48.527 100.7 0.7 136 23.5
2004-01-22 09:07:10 51°25.946 2°48.528 99.6 0.7 138 23.4
2004-01-22 09:07:16 51°25.945 2°48.529 98.9 0.6 136 23.4
2004-01-22 09:07:20 51°25.945 2°48.53 97.9 0.6 139 23.5
2004-01-22 09:07:26 51°25.944 2°48.532 97.1 0.6 129 23.5
2004-01-22 09:07:30 51°25.944 2°48.532 96.5 0.6 129 23.5
2004-01-22 09:07:36 51°25.943 2°48.534 95.8 0.6 128 23.5
2004-01-22 09:07:40 51°25.943 2°48.534 94.8 0.5 125 23.5
2004-01-22 09:07:44 51°25.943 2°48.536 94.1 0.7 127 23.5
2004-01-22 09:07:50 51°25.942 2°48.537 93.3 0.6 127 23.6
2004-01-22 09:07:56 51°25.941 2°48.538 93.2 0.7 120 23.6
2004-01-22 09:08:00 51°25.941 2°48.539 92.9 0.6 116 23.6
2004-01-22 09:08:06 51°25.941 2°48.54 93.1 0.5 125 23.7
2004-01-22 09:08:10 51°25.94 2°48.541 92.7 0.6 125 23.6
2004-01-22 09:08:16 51°25.94 2°48.542 92.9 0.6 125 23.6
2004-01-22 09:08:20 51°25.939 2°48.543 92.4 0.6 125 23.6
2004-01-22 09:08:26 51°25.939 2°48.544 91.7 0.5 109 23.6
2004-01-22 09:08:30 51°25.938 2°48.545 90.9 0.5 122 23.6
2004-01-22 09:08:36 51°25.938 2°48.546 89.9 0.6 108 23.7
2004-01-22 09:08:40 51°25.938 2°48.547 89 0.6 113 23.7
2004-01-22 09:08:46 51°25.937 2°48.549 87.7 0.7 111 23.7
2004-01-22 09:08:50 51°25.937 2°48.55 85.9 0.7 111 23.7
2004-01-22 09:08:56 51°25.937 2°48.552 83.9 0.8 87 23.6
2004-01-22 09:09:00 51°25.937 2°48.554 81.5 0.9 84 23.6
2004-01-22 09:09:06 51°25.938 2°48.557 79 1.1 79 23.7
2004-01-22 09:09:11 51°25.938 2°48.559 76 1.1 74 23.6
2004-01-22 09:09:16 51°25.939 2°48.562 72.7 1.1 67 23.7
2004-01-22 09:09:20 51°25.939 2°48.564 69.7 1.2 62 23.7
2004-01-22 09:09:26 51°25.941 2°48.567 66.4 1.3 59 23.7
2004-01-22 09:09:30 51°25.941 2°48.568 63.5 1.3 53 23.8
2004-01-22 09:09:36 51°25.943 2°48.571 60.3 1.4 47 23.7
2004-01-22 09:09:40 51°25.944 2°48.573 57 1.5 42 24
2004-01-22 09:09:46 51°25.947 2°48.575 53.5 1.5 37 23.7
2004-01-22 09:09:50 51°25.948 2°48.577 50 1.6 36 23.9
2004-01-22 09:09:56 51°25.95 2°48.579 46.4 1.6 28 24
2004-01-22 09:10:00 51°25.952 2°48.58 42.8 1.8 20 23.9
2004-01-22 09:10:06 51°25.955 2°48.581 39 1.8 18 24
2004-01-22 09:10:10 51°25.957 2°48.582 35 1.9 10 23.8
2004-01-22 09:10:16 51°25.96 2°48.582 31 1.8 1 23.8
2004-01-22 09:10:20 51°25.962 2°48.582 26.7 1.9   23.7
2004-01-22 09:10:26 51°25.966 2°48.582 22.2 2.1 355 23.8
2004-01-22 09:10:31 51°25.969 2°48.581 17.4 2.2 349 23.7
2004-01-22 09:10:36 51°25.971 2°48.579 12.7 2.1 347 23.8
2004-01-22 09:10:40 51°25.974 2°48.578 8.1 2.2 339 23.9
2004-01-22 09:10:46 51°25.977 2°48.576 4.1 2.2 336 23.7
2004-01-22 09:10:50 51°25.979 2°48.574 0.8 2.2 333 23.9
2004-01-22 09:10:56 51°25.982 2°48.57 358.1 2.3 327 23.8
2004-01-22 09:11:00 51°25.984 2°48.569 355.9 2.4 329 23.7
2004-01-22 09:11:04 51°25.986 2°48.566 354.4 2.4 329 23.6
2004-01-22 09:11:10 51°25.989 2°48.563 353.6 2.2 325 23.8
2004-01-22 09:11:16 51°25.992 2°48.559 353 2.2 322 23.6
2004-01-22 09:11:21 51°25.995 2°48.556 352.7 2.2 323 23.5
2004-01-22 09:11:26 51°25.997 2°48.553 351.8 2.2 323 23.7
2004-01-22 09:11:30 51°25.999 2°48.551 351.2 2.2 320 23.8
2004-01-22 09:11:36 51°26.002 2°48.547 350.9 2.2 320 23.5
2004-01-22 09:11:40 51°26.004 2°48.545 350.5 2.1 320 23.4
2004-01-22 09:11:44 51°26.006 2°48.542 350.5 2.1 320 23.4
2004-01-22 09:11:50 51°26.008 2°48.539 350.5 2.2 322 23.5
2004-01-22 09:11:56 51°26.012 2°48.535 351.4 2.5 330 23.6
2004-01-22 09:12:00 51°26.014 2°48.534 353.5 2.5 336 23.2
2004-01-22 09:12:06 51°26.018 2°48.531 357.8 2.6 335 22.7
2004-01-22 09:12:10 51°26.021 2°48.53 3.3 2.7 345 22.7
2004-01-22 09:12:16 51°26.026 2°48.53 10.1 2.9   23.1
2004-01-22 09:12:20 51°26.029 2°48.53 17.3 3 8 23.3